Terminal Aerodrome Forecast
Issued by NWS

Home | Current Version | Previous Version | Text Only | Print | Product List | Glossary On
Versions: 1 2 3 4 5 6 7 8 9 10 11 12 13 14
000
FTUS42 KTBW 172300
TAFPGD
TAF
KPGD 172340Z 1800/1824 VRB03KT P6SM FEW030 SCT250
     FM180300 VRB03KT P6SM VCSH SCT030 SCT250
     FM181200 VRB03KT P6SM VCTS SCT025CB SCT080 SCT250
     FM181800 26006KT P6SM VCTS SCT035CB SCT250=

USA.gov is the U.S. government's official web portal to all federal, state and local government web resources and services.